sensor_id;sensor_type;location;lat;lon;timestamp;P1;durP1;ratioP1;P2;durP2;ratioP2
50337;SDS011;46221;51.178;5.900;2022-07-17T00:01:13;6.95;;;1.88;;
50337;SDS011;46221;51.178;5.900;2022-07-17T00:03:40;4.97;;;1.85;;
50337;SDS011;46221;51.178;5.900;2022-07-17T00:06:07;5.40;;;1.60;;
50337;SDS011;46221;51.178;5.900;2022-07-17T00:08:33;3.53;;;1.70;;
50337;SDS011;46221;51.178;5.900;2022-07-17T00:11:00;4.05;;;1.45;;
50337;SDS011;46221;51.178;5.900;2022-07-17T00:13:27;3.90;;;1.50;;
50337;SDS011;46221;51.178;5.900;2022-07-17T00:15:54;4.60;;;1.52;;
50337;SDS011;46221;51.178;5.900;2022-07-17T00:18:20;6.43;;;1.58;;
50337;SDS011;46221;51.178;5.900;2022-07-17T00:20:46;3.63;;;1.25;;
50337;SDS011;46221;51.178;5.900;2022-07-17T00:23:13;4.45;;;1.50;;
50337;SDS011;46221;51.178;5.900;2022-07-17T00:25:39;4.28;;;1.60;;
50337;SDS011;46221;51.178;5.900;2022-07-17T00:28:06;2.33;;;1.02;;
50337;SDS011;46221;51.178;5.900;2022-07-17T00:30:32;6.85;;;1.58;;
50337;SDS011;46221;51.178;5.900;2022-07-17T00:32:58;5.85;;;1.60;;
50337;SDS011;46221;51.178;5.900;2022-07-17T00:35:24;5.03;;;1.45;;
50337;SDS011;46221;51.178;5.900;2022-07-17T00:37:51;5.45;;;1.35;;
50337;SDS011;46221;51.178;5.900;2022-07-17T00:40:19;4.35;;;1.65;;
50337;SDS011;46221;51.178;5.900;2022-07-17T00:42:46;3.40;;;1.40;;
50337;SDS011;46221;51.178;5.900;2022-07-17T00:45:12;4.25;;;1.33;;
50337;SDS011;46221;51.178;5.900;2022-07-17T00:47:50;4.75;;;1.50;;
50337;SDS011;46221;51.178;5.900;2022-07-17T00:50:17;3.42;;;1.30;;
50337;SDS011;46221;51.178;5.900;2022-07-17T00:52:44;3.38;;;1.25;;
50337;SDS011;46221;51.178;5.900;2022-07-17T00:55:11;4.85;;;1.45;;
50337;SDS011;46221;51.178;5.900;2022-07-17T00:58:00;2.83;;;1.25;;
50337;SDS011;46221;51.178;5.900;2022-07-17T01:00:27;4.13;;;1.20;;
50337;SDS011;46221;51.178;5.900;2022-07-17T01:02:53;3.95;;;1.42;;
50337;SDS011;46221;51.178;5.900;2022-07-17T01:05:20;3.20;;;1.73;;
50337;SDS011;46221;51.178;5.900;2022-07-17T01:07:47;3.42;;;1.50;;
50337;SDS011;46221;51.178;5.900;2022-07-17T01:10:14;3.92;;;1.10;;
50337;SDS011;46221;51.178;5.900;2022-07-17T01:12:42;4.88;;;1.23;;
50337;SDS011;46221;51.178;5.900;2022-07-17T01:15:09;3.20;;;1.30;;
50337;SDS011;46221;51.178;5.900;2022-07-17T01:17:36;3.92;;;1.13;;
50337;SDS011;46221;51.178;5.900;2022-07-17T01:20:03;3.95;;;1.20;;
50337;SDS011;46221;51.178;5.900;2022-07-17T01:22:30;4.10;;;1.20;;
50337;SDS011;46221;51.178;5.900;2022-07-17T01:24:56;3.05;;;1.40;;
50337;SDS011;46221;51.178;5.900;2022-07-17T01:27:23;4.68;;;1.45;;
50337;SDS011;46221;51.178;5.900;2022-07-17T01:29:49;3.75;;;1.23;;
50337;SDS011;46221;51.178;5.900;2022-07-17T01:32:15;3.03;;;1.20;;
50337;SDS011;46221;51.178;5.900;2022-07-17T01:34:42;3.88;;;1.20;;
50337;SDS011;46221;51.178;5.900;2022-07-17T01:37:08;4.82;;;1.10;;
50337;SDS011;46221;51.178;5.900;2022-07-17T01:39:35;4.05;;;1.30;;
50337;SDS011;46221;51.178;5.900;2022-07-17T01:42:20;3.55;;;1.75;;
50337;SDS011;46221;51.178;5.900;2022-07-17T01:44:47;5.18;;;1.20;;
50337;SDS011;46221;51.178;5.900;2022-07-17T01:47:13;3.55;;;1.20;;
50337;SDS011;46221;51.178;5.900;2022-07-17T01:49:43;3.88;;;1.35;;
50337;SDS011;46221;51.178;5.900;2022-07-17T01:52:10;4.40;;;1.27;;
50337;SDS011;46221;51.178;5.900;2022-07-17T01:54:36;4.38;;;1.83;;
50337;SDS011;46221;51.178;5.900;2022-07-17T01:57:02;2.42;;;1.00;;
50337;SDS011;46221;51.178;5.900;2022-07-17T01:59:29;2.33;;;1.20;;
50337;SDS011;46221;51.178;5.900;2022-07-17T02:01:55;3.13;;;1.20;;
50337;SDS011;46221;51.178;5.900;2022-07-17T02:04:21;3.88;;;1.58;;
50337;SDS011;46221;51.178;5.900;2022-07-17T02:06:48;3.20;;;1.23;;
50337;SDS011;46221;51.178;5.900;2022-07-17T02:09:14;4.15;;;1.35;;
50337;SDS011;46221;51.178;5.900;2022-07-17T02:11:40;3.90;;;1.30;;
50337;SDS011;46221;51.178;5.900;2022-07-17T02:14:06;3.83;;;1.35;;
50337;SDS011;46221;51.178;5.900;2022-07-17T02:16:33;3.97;;;1.20;;
50337;SDS011;46221;51.178;5.900;2022-07-17T02:18:59;3.92;;;1.42;;
50337;SDS011;46221;51.178;5.900;2022-07-17T02:21:25;3.13;;;1.10;;
50337;SDS011;46221;51.178;5.900;2022-07-17T02:23:52;4.47;;;1.60;;
50337;SDS011;46221;51.178;5.900;2022-07-17T02:26:18;3.38;;;1.50;;
50337;SDS011;46221;51.178;5.900;2022-07-17T02:28:44;3.90;;;1.30;;
50337;SDS011;46221;51.178;5.900;2022-07-17T02:31:11;3.25;;;1.20;;
50337;SDS011;46221;51.178;5.900;2022-07-17T02:33:37;2.65;;;1.30;;
50337;SDS011;46221;51.178;5.900;2022-07-17T02:36:04;5.10;;;1.65;;
50337;SDS011;46221;51.178;5.900;2022-07-17T02:38:30;3.67;;;1.50;;
50337;SDS011;46221;51.178;5.900;2022-07-17T02:40:56;3.97;;;1.50;;
50337;SDS011;46221;51.178;5.900;2022-07-17T02:43:23;3.80;;;1.50;;
50337;SDS011;46221;51.178;5.900;2022-07-17T02:45:49;2.80;;;1.48;;
50337;SDS011;46221;51.178;5.900;2022-07-17T02:48:15;4.78;;;1.67;;
50337;SDS011;46221;51.178;5.900;2022-07-17T02:50:42;2.33;;;1.10;;
50337;SDS011;46221;51.178;5.900;2022-07-17T02:53:08;3.53;;;1.30;;
50337;SDS011;46221;51.178;5.900;2022-07-17T02:55:34;4.20;;;1.30;;
50337;SDS011;46221;51.178;5.900;2022-07-17T02:58:01;5.00;;;1.30;;
50337;SDS011;46221;51.178;5.900;2022-07-17T03:00:28;3.13;;;1.30;;
50337;SDS011;46221;51.178;5.900;2022-07-17T03:02:54;3.90;;;1.50;;
50337;SDS011;46221;51.178;5.900;2022-07-17T03:05:21;2.97;;;1.30;;
50337;SDS011;46221;51.178;5.900;2022-07-17T03:07:47;3.95;;;1.60;;
50337;SDS011;46221;51.178;5.900;2022-07-17T03:10:14;3.08;;;1.33;;
50337;SDS011;46221;51.178;5.900;2022-07-17T03:12:41;4.60;;;1.67;;
50337;SDS011;46221;51.178;5.900;2022-07-17T03:15:08;2.83;;;1.35;;
50337;SDS011;46221;51.178;5.900;2022-07-17T03:17:38;4.45;;;1.40;;
50337;SDS011;46221;51.178;5.900;2022-07-17T03:20:04;3.97;;;1.65;;
50337;SDS011;46221;51.178;5.900;2022-07-17T03:22:31;3.75;;;1.60;;
50337;SDS011;46221;51.178;5.900;2022-07-17T03:24:57;3.40;;;1.88;;
50337;SDS011;46221;51.178;5.900;2022-07-17T03:27:23;3.92;;;1.50;;
50337;SDS011;46221;51.178;5.900;2022-07-17T03:29:49;4.70;;;1.50;;
50337;SDS011;46221;51.178;5.900;2022-07-17T03:32:16;3.58;;;1.70;;
50337;SDS011;46221;51.178;5.900;2022-07-17T03:34:42;3.38;;;1.50;;
50337;SDS011;46221;51.178;5.900;2022-07-17T03:37:09;3.53;;;1.40;;
50337;SDS011;46221;51.178;5.900;2022-07-17T03:39:35;3.33;;;1.38;;
50337;SDS011;46221;51.178;5.900;2022-07-17T03:42:02;3.80;;;1.60;;
50337;SDS011;46221;51.178;5.900;2022-07-17T03:44:28;3.65;;;1.42;;
50337;SDS011;46221;51.178;5.900;2022-07-17T03:46:55;3.58;;;1.75;;
50337;SDS011;46221;51.178;5.900;2022-07-17T03:49:21;2.80;;;1.30;;
50337;SDS011;46221;51.178;5.900;2022-07-17T03:51:48;4.82;;;1.48;;
50337;SDS011;46221;51.178;5.900;2022-07-17T03:54:14;3.75;;;1.30;;
50337;SDS011;46221;51.178;5.900;2022-07-17T03:56:40;2.88;;;1.50;;
50337;SDS011;46221;51.178;5.900;2022-07-17T03:59:07;4.20;;;1.58;;
50337;SDS011;46221;51.178;5.900;2022-07-17T04:01:33;3.92;;;1.50;;
50337;SDS011;46221;51.178;5.900;2022-07-17T04:03:59;3.45;;;1.90;;
50337;SDS011;46221;51.178;5.900;2022-07-17T04:06:26;5.43;;;1.60;;
50337;SDS011;46221;51.178;5.900;2022-07-17T04:08:52;3.47;;;2.00;;
50337;SDS011;46221;51.178;5.900;2022-07-17T04:11:19;3.63;;;1.30;;
50337;SDS011;46221;51.178;5.900;2022-07-17T04:13:46;2.58;;;1.27;;
50337;SDS011;46221;51.178;5.900;2022-07-17T04:16:13;2.90;;;1.60;;
50337;SDS011;46221;51.178;5.900;2022-07-17T04:18:39;5.43;;;2.17;;
50337;SDS011;46221;51.178;5.900;2022-07-17T04:21:07;3.25;;;1.63;;
50337;SDS011;46221;51.178;5.900;2022-07-17T04:23:34;3.55;;;1.50;;
50337;SDS011;46221;51.178;5.900;2022-07-17T04:26:00;3.47;;;1.33;;
50337;SDS011;46221;51.178;5.900;2022-07-17T04:28:34;2.92;;;1.40;;
50337;SDS011;46221;51.178;5.900;2022-07-17T04:31:01;2.30;;;1.20;;
50337;SDS011;46221;51.178;5.900;2022-07-17T04:33:27;3.10;;;1.20;;
50337;SDS011;46221;51.178;5.900;2022-07-17T04:35:54;2.80;;;1.20;;
50337;SDS011;46221;51.178;5.900;2022-07-17T04:38:20;3.08;;;1.38;;
50337;SDS011;46221;51.178;5.900;2022-07-17T04:40:46;2.28;;;1.20;;
50337;SDS011;46221;51.178;5.900;2022-07-17T04:43:13;3.40;;;1.75;;
50337;SDS011;46221;51.178;5.900;2022-07-17T04:45:39;2.95;;;1.67;;
50337;SDS011;46221;51.178;5.900;2022-07-17T04:48:05;4.20;;;1.40;;
50337;SDS011;46221;51.178;5.900;2022-07-17T04:50:31;3.80;;;1.70;;
50337;SDS011;46221;51.178;5.900;2022-07-17T04:52:59;5.22;;;1.45;;
50337;SDS011;46221;51.178;5.900;2022-07-17T04:55:27;4.25;;;2.10;;
50337;SDS011;46221;51.178;5.900;2022-07-17T04:57:53;3.90;;;1.70;;
50337;SDS011;46221;51.178;5.900;2022-07-17T05:00:20;3.70;;;1.70;;
50337;SDS011;46221;51.178;5.900;2022-07-17T05:02:46;3.30;;;1.83;;
50337;SDS011;46221;51.178;5.900;2022-07-17T05:05:12;2.95;;;1.60;;
50337;SDS011;46221;51.178;5.900;2022-07-17T05:07:39;5.38;;;1.73;;
50337;SDS011;46221;51.178;5.900;2022-07-17T05:10:05;3.50;;;1.90;;
50337;SDS011;46221;51.178;5.900;2022-07-17T05:12:32;4.43;;;1.85;;
50337;SDS011;46221;51.178;5.900;2022-07-17T05:14:58;3.13;;;1.30;;
50337;SDS011;46221;51.178;5.900;2022-07-17T05:17:25;2.65;;;1.30;;
50337;SDS011;46221;51.178;5.900;2022-07-17T05:19:51;3.45;;;1.50;;
50337;SDS011;46221;51.178;5.900;2022-07-17T05:22:17;3.53;;;1.40;;
50337;SDS011;46221;51.178;5.900;2022-07-17T05:24:44;6.10;;;1.88;;
50337;SDS011;46221;51.178;5.900;2022-07-17T05:27:10;3.35;;;1.50;;
50337;SDS011;46221;51.178;5.900;2022-07-17T05:29:36;2.75;;;1.40;;
50337;SDS011;46221;51.178;5.900;2022-07-17T05:32:03;3.33;;;1.27;;
50337;SDS011;46221;51.178;5.900;2022-07-17T05:34:29;3.72;;;1.40;;
50337;SDS011;46221;51.178;5.900;2022-07-17T05:36:55;3.55;;;1.30;;
50337;SDS011;46221;51.178;5.900;2022-07-17T05:39:21;3.50;;;1.45;;
50337;SDS011;46221;51.178;5.900;2022-07-17T05:41:48;3.78;;;1.50;;
50337;SDS011;46221;51.178;5.900;2022-07-17T05:44:14;4.47;;;1.45;;
50337;SDS011;46221;51.178;5.900;2022-07-17T05:46:40;4.10;;;1.70;;
50337;SDS011;46221;51.178;5.900;2022-07-17T05:49:07;4.78;;;1.67;;
50337;SDS011;46221;51.178;5.900;2022-07-17T05:51:33;5.00;;;1.65;;
50337;SDS011;46221;51.178;5.900;2022-07-17T05:53:59;4.85;;;1.80;;
50337;SDS011;46221;51.178;5.900;2022-07-17T05:56:25;4.05;;;1.73;;
50337;SDS011;46221;51.178;5.900;2022-07-17T05:58:52;4.95;;;1.70;;
50337;SDS011;46221;51.178;5.900;2022-07-17T06:01:18;4.25;;;1.77;;
50337;SDS011;46221;51.178;5.900;2022-07-17T06:03:45;3.50;;;1.38;;
50337;SDS011;46221;51.178;5.900;2022-07-17T06:06:11;4.47;;;1.88;;
50337;SDS011;46221;51.178;5.900;2022-07-17T06:08:37;4.97;;;1.75;;
50337;SDS011;46221;51.178;5.900;2022-07-17T06:11:04;5.10;;;1.88;;
50337;SDS011;46221;51.178;5.900;2022-07-17T06:13:30;4.32;;;1.90;;
50337;SDS011;46221;51.178;5.900;2022-07-17T06:15:56;4.03;;;1.67;;
50337;SDS011;46221;51.178;5.900;2022-07-17T06:18:25;5.25;;;2.30;;
50337;SDS011;46221;51.178;5.900;2022-07-17T06:20:51;6.05;;;1.80;;
50337;SDS011;46221;51.178;5.900;2022-07-17T06:23:18;4.20;;;1.50;;
50337;SDS011;46221;51.178;5.900;2022-07-17T06:25:44;5.15;;;1.70;;
50337;SDS011;46221;51.178;5.900;2022-07-17T06:28:10;6.03;;;1.60;;
50337;SDS011;46221;51.178;5.900;2022-07-17T06:30:37;4.88;;;1.77;;
50337;SDS011;46221;51.178;5.900;2022-07-17T06:33:03;7.00;;;1.67;;
50337;SDS011;46221;51.178;5.900;2022-07-17T06:35:29;8.23;;;2.00;;
50337;SDS011;46221;51.178;5.900;2022-07-17T06:37:57;6.00;;;1.92;;
50337;SDS011;46221;51.178;5.900;2022-07-17T06:40:23;5.35;;;1.80;;
50337;SDS011;46221;51.178;5.900;2022-07-17T06:42:49;4.15;;;1.70;;
50337;SDS011;46221;51.178;5.900;2022-07-17T06:45:15;5.38;;;1.70;;
50337;SDS011;46221;51.178;5.900;2022-07-17T06:47:42;3.53;;;1.60;;
50337;SDS011;46221;51.178;5.900;2022-07-17T06:50:08;5.85;;;1.80;;
50337;SDS011;46221;51.178;5.900;2022-07-17T06:52:35;3.58;;;1.80;;
50337;SDS011;46221;51.178;5.900;2022-07-17T06:55:02;6.80;;;1.60;;
50337;SDS011;46221;51.178;5.900;2022-07-17T06:57:28;5.38;;;1.98;;
50337;SDS011;46221;51.178;5.900;2022-07-17T06:59:54;4.30;;;1.65;;
50337;SDS011;46221;51.178;5.900;2022-07-17T07:02:21;5.35;;;1.63;;
50337;SDS011;46221;51.178;5.900;2022-07-17T07:04:47;4.78;;;1.45;;
50337;SDS011;46221;51.178;5.900;2022-07-17T07:07:13;4.35;;;1.67;;
50337;SDS011;46221;51.178;5.900;2022-07-17T07:09:40;2.90;;;1.50;;
50337;SDS011;46221;51.178;5.900;2022-07-17T07:12:06;5.80;;;1.83;;
50337;SDS011;46221;51.178;5.900;2022-07-17T07:14:33;4.82;;;1.48;;
50337;SDS011;46221;51.178;5.900;2022-07-17T07:16:59;6.07;;;1.90;;
50337;SDS011;46221;51.178;5.900;2022-07-17T07:19:25;3.38;;;1.80;;
50337;SDS011;46221;51.178;5.900;2022-07-17T07:21:52;4.80;;;1.67;;
50337;SDS011;46221;51.178;5.900;2022-07-17T07:24:18;4.95;;;2.08;;
50337;SDS011;46221;51.178;5.900;2022-07-17T07:26:45;4.68;;;1.85;;
50337;SDS011;46221;51.178;5.900;2022-07-17T07:29:11;3.25;;;1.70;;
50337;SDS011;46221;51.178;5.900;2022-07-17T07:31:42;4.13;;;1.75;;
50337;SDS011;46221;51.178;5.900;2022-07-17T07:34:08;3.92;;;1.85;;
50337;SDS011;46221;51.178;5.900;2022-07-17T07:36:35;3.72;;;1.92;;
50337;SDS011;46221;51.178;5.900;2022-07-17T07:39:01;5.00;;;1.55;;
50337;SDS011;46221;51.178;5.900;2022-07-17T07:41:27;3.60;;;1.85;;
50337;SDS011;46221;51.178;5.900;2022-07-17T07:43:54;3.50;;;1.70;;
50337;SDS011;46221;51.178;5.900;2022-07-17T07:46:21;5.97;;;2.15;;
50337;SDS011;46221;51.178;5.900;2022-07-17T07:48:47;4.18;;;1.67;;
50337;SDS011;46221;51.178;5.900;2022-07-17T07:51:13;4.80;;;1.83;;
50337;SDS011;46221;51.178;5.900;2022-07-17T07:53:40;4.38;;;1.70;;
50337;SDS011;46221;51.178;5.900;2022-07-17T07:56:06;4.18;;;1.58;;
50337;SDS011;46221;51.178;5.900;2022-07-17T07:58:32;2.80;;;1.60;;
50337;SDS011;46221;51.178;5.900;2022-07-17T08:01:00;4.13;;;1.70;;
50337;SDS011;46221;51.178;5.900;2022-07-17T08:03:26;5.78;;;1.95;;
50337;SDS011;46221;51.178;5.900;2022-07-17T08:05:52;3.70;;;1.55;;
50337;SDS011;46221;51.178;5.900;2022-07-17T08:08:19;3.92;;;1.60;;
50337;SDS011;46221;51.178;5.900;2022-07-17T08:10:45;5.43;;;1.30;;
50337;SDS011;46221;51.178;5.900;2022-07-17T08:13:12;3.67;;;1.80;;
50337;SDS011;46221;51.178;5.900;2022-07-17T08:15:38;4.68;;;1.92;;
50337;SDS011;46221;51.178;5.900;2022-07-17T08:18:04;6.07;;;2.45;;
50337;SDS011;46221;51.178;5.900;2022-07-17T08:20:31;5.65;;;1.92;;
50337;SDS011;46221;51.178;5.900;2022-07-17T08:22:58;5.60;;;1.60;;
50337;SDS011;46221;51.178;5.900;2022-07-17T08:25:31;3.70;;;1.80;;
50337;SDS011;46221;51.178;5.900;2022-07-17T08:27:57;5.22;;;1.60;;
50337;SDS011;46221;51.178;5.900;2022-07-17T08:30:23;6.57;;;2.28;;
50337;SDS011;46221;51.178;5.900;2022-07-17T08:32:50;4.63;;;1.90;;
50337;SDS011;46221;51.178;5.900;2022-07-17T08:35:16;3.28;;;1.80;;
50337;SDS011;46221;51.178;5.900;2022-07-17T08:37:50;3.88;;;1.75;;
50337;SDS011;46221;51.178;5.900;2022-07-17T08:42:43;5.38;;;1.60;;
50337;SDS011;46221;51.178;5.900;2022-07-17T08:45:10;5.22;;;1.70;;
50337;SDS011;46221;51.178;5.900;2022-07-17T08:47:37;6.20;;;1.50;;
50337;SDS011;46221;51.178;5.900;2022-07-17T08:50:03;6.15;;;1.67;;
50337;SDS011;46221;51.178;5.900;2022-07-17T08:52:30;6.35;;;1.55;;
50337;SDS011;46221;51.178;5.900;2022-07-17T08:54:57;5.22;;;1.27;;
50337;SDS011;46221;51.178;5.900;2022-07-17T08:57:23;4.88;;;1.60;;
50337;SDS011;46221;51.178;5.900;2022-07-17T08:59:49;5.90;;;1.27;;
50337;SDS011;46221;51.178;5.900;2022-07-17T09:02:16;5.25;;;1.48;;
50337;SDS011;46221;51.178;5.900;2022-07-17T09:04:42;3.13;;;1.08;;
50337;SDS011;46221;51.178;5.900;2022-07-17T09:07:08;6.57;;;1.45;;
50337;SDS011;46221;51.178;5.900;2022-07-17T09:09:35;5.47;;;1.20;;
50337;SDS011;46221;51.178;5.900;2022-07-17T09:12:01;5.60;;;1.50;;
50337;SDS011;46221;51.178;5.900;2022-07-17T09:14:39;6.20;;;1.30;;
50337;SDS011;46221;51.178;5.900;2022-07-17T09:17:08;3.88;;;1.10;;
50337;SDS011;46221;51.178;5.900;2022-07-17T09:19:40;3.85;;;1.30;;
50337;SDS011;46221;51.178;5.900;2022-07-17T09:22:14;5.57;;;1.38;;
50337;SDS011;46221;51.178;5.900;2022-07-17T09:27:11;3.05;;;1.20;;
50337;SDS011;46221;51.178;5.900;2022-07-17T09:29:50;3.65;;;1.17;;
50337;SDS011;46221;51.178;5.900;2022-07-17T09:32:18;4.07;;;1.02;;
50337;SDS011;46221;51.178;5.900;2022-07-17T09:34:46;2.75;;;1.30;;
50337;SDS011;46221;51.178;5.900;2022-07-17T09:37:13;2.50;;;0.90;;
50337;SDS011;46221;51.178;5.900;2022-07-17T09:39:40;2.08;;;0.90;;
50337;SDS011;46221;51.178;5.900;2022-07-17T09:42:07;4.75;;;1.50;;
50337;SDS011;46221;51.178;5.900;2022-07-17T09:44:34;4.15;;;1.20;;
50337;SDS011;46221;51.178;5.900;2022-07-17T09:47:02;3.38;;;1.17;;
50337;SDS011;46221;51.178;5.900;2022-07-17T09:49:29;4.20;;;1.45;;
50337;SDS011;46221;51.178;5.900;2022-07-17T09:51:56;5.35;;;1.65;;
50337;SDS011;46221;51.178;5.900;2022-07-17T09:54:23;4.63;;;1.70;;
50337;SDS011;46221;51.178;5.900;2022-07-17T09:56:50;5.40;;;1.25;;
50337;SDS011;46221;51.178;5.900;2022-07-17T09:59:17;3.00;;;1.20;;
50337;SDS011;46221;51.178;5.900;2022-07-17T10:01:44;4.97;;;1.30;;
50337;SDS011;46221;51.178;5.900;2022-07-17T10:04:11;3.67;;;1.33;;
50337;SDS011;46221;51.178;5.900;2022-07-17T10:06:38;4.50;;;1.42;;
50337;SDS011;46221;51.178;5.900;2022-07-17T10:09:04;2.45;;;0.90;;
50337;SDS011;46221;51.178;5.900;2022-07-17T10:11:33;2.85;;;1.40;;
50337;SDS011;46221;51.178;5.900;2022-07-17T10:14:03;2.22;;;0.90;;
50337;SDS011;46221;51.178;5.900;2022-07-17T10:16:31;2.60;;;1.00;;
50337;SDS011;46221;51.178;5.900;2022-07-17T10:18:59;2.45;;;0.80;;
50337;SDS011;46221;51.178;5.900;2022-07-17T10:21:28;2.83;;;1.10;;
50337;SDS011;46221;51.178;5.900;2022-07-17T10:29:06;2.58;;;0.93;;
50337;SDS011;46221;51.178;5.900;2022-07-17T10:31:33;3.05;;;1.08;;
50337;SDS011;46221;51.178;5.900;2022-07-17T10:34:01;2.40;;;0.90;;
50337;SDS011;46221;51.178;5.900;2022-07-17T10:36:32;2.58;;;0.80;;
50337;SDS011;46221;51.178;5.900;2022-07-17T10:38:58;2.47;;;1.00;;
50337;SDS011;46221;51.178;5.900;2022-07-17T10:41:25;3.67;;;1.02;;
50337;SDS011;46221;51.178;5.900;2022-07-17T10:43:52;3.10;;;1.00;;
50337;SDS011;46221;51.178;5.900;2022-07-17T10:46:19;2.10;;;0.90;;
50337;SDS011;46221;51.178;5.900;2022-07-17T10:48:47;2.53;;;1.17;;
50337;SDS011;46221;51.178;5.900;2022-07-17T10:51:13;3.92;;;0.90;;
50337;SDS011;46221;51.178;5.900;2022-07-17T10:53:39;2.72;;;0.93;;
50337;SDS011;46221;51.178;5.900;2022-07-17T10:56:08;4.25;;;1.02;;
50337;SDS011;46221;51.178;5.900;2022-07-17T10:58:36;4.60;;;1.20;;
50337;SDS011;46221;51.178;5.900;2022-07-17T11:03:30;4.35;;;1.20;;
50337;SDS011;46221;51.178;5.900;2022-07-17T11:06:07;1.73;;;0.90;;
50337;SDS011;46221;51.178;5.900;2022-07-17T11:08:46;2.25;;;0.98;;
50337;SDS011;46221;51.178;5.900;2022-07-17T11:11:12;2.50;;;0.90;;
50337;SDS011;46221;51.178;5.900;2022-07-17T11:13:48;2.42;;;1.15;;
50337;SDS011;46221;51.178;5.900;2022-07-17T11:16:27;2.20;;;0.90;;
50337;SDS011;46221;51.178;5.900;2022-07-17T11:18:54;3.13;;;0.95;;
50337;SDS011;46221;51.178;5.900;2022-07-17T11:21:21;2.75;;;1.00;;
50337;SDS011;46221;51.178;5.900;2022-07-17T11:23:52;1.45;;;0.60;;
50337;SDS011;46221;51.178;5.900;2022-07-17T11:26:19;2.25;;;0.85;;
50337;SDS011;46221;51.178;5.900;2022-07-17T11:28:47;3.08;;;1.20;;
50337;SDS011;46221;51.178;5.900;2022-07-17T11:33:46;1.77;;;0.90;;
50337;SDS011;46221;51.178;5.900;2022-07-17T11:36:12;2.17;;;0.93;;
50337;SDS011;46221;51.178;5.900;2022-07-17T11:38:45;2.08;;;0.60;;
50337;SDS011;46221;51.178;5.900;2022-07-17T11:41:12;6.35;;;1.00;;
50337;SDS011;46221;51.178;5.900;2022-07-17T11:43:39;2.45;;;0.88;;
50337;SDS011;46221;51.178;5.900;2022-07-17T11:46:06;3.55;;;0.95;;
50337;SDS011;46221;51.178;5.900;2022-07-17T11:48:33;4.28;;;1.30;;
50337;SDS011;46221;51.178;5.900;2022-07-17T11:51:00;4.30;;;1.27;;
50337;SDS011;46221;51.178;5.900;2022-07-17T11:53:30;2.70;;;1.00;;
50337;SDS011;46221;51.178;5.900;2022-07-17T11:55:57;2.17;;;1.00;;
50337;SDS011;46221;51.178;5.900;2022-07-17T11:58:23;4.75;;;1.10;;
50337;SDS011;46221;51.178;5.900;2022-07-17T12:00:59;4.32;;;1.00;;
50337;SDS011;46221;51.178;5.900;2022-07-17T12:03:25;2.67;;;1.02;;
50337;SDS011;46221;51.178;5.900;2022-07-17T12:05:52;3.17;;;1.17;;
50337;SDS011;46221;51.178;5.900;2022-07-17T12:08:19;4.00;;;1.20;;
50337;SDS011;46221;51.178;5.900;2022-07-17T12:10:58;5.45;;;1.10;;
50337;SDS011;46221;51.178;5.900;2022-07-17T12:13:39;3.63;;;1.00;;
50337;SDS011;46221;51.178;5.900;2022-07-17T12:19:00;5.53;;;0.90;;
50337;SDS011;46221;51.178;5.900;2022-07-17T12:21:27;3.05;;;0.80;;
50337;SDS011;46221;51.178;5.900;2022-07-17T12:24:03;2.42;;;0.90;;
50337;SDS011;46221;51.178;5.900;2022-07-17T12:26:31;1.60;;;0.80;;
50337;SDS011;46221;51.178;5.900;2022-07-17T12:28:58;1.85;;;0.85;;
50337;SDS011;46221;51.178;5.900;2022-07-17T12:31:27;2.33;;;0.80;;
50337;SDS011;46221;51.178;5.900;2022-07-17T12:33:54;2.50;;;0.80;;
50337;SDS011;46221;51.178;5.900;2022-07-17T12:36:21;2.15;;;0.65;;
50337;SDS011;46221;51.178;5.900;2022-07-17T12:38:50;4.13;;;0.80;;
50337;SDS011;46221;51.178;5.900;2022-07-17T12:41:34;3.30;;;0.88;;
50337;SDS011;46221;51.178;5.900;2022-07-17T12:44:00;3.50;;;0.80;;
50337;SDS011;46221;51.178;5.900;2022-07-17T12:46:26;3.00;;;0.80;;
50337;SDS011;46221;51.178;5.900;2022-07-17T12:48:53;1.90;;;0.80;;
50337;SDS011;46221;51.178;5.900;2022-07-17T12:51:21;2.40;;;0.80;;
50337;SDS011;46221;51.178;5.900;2022-07-17T12:53:55;2.42;;;0.80;;
50337;SDS011;46221;51.178;5.900;2022-07-17T12:56:21;2.55;;;1.23;;
50337;SDS011;46221;51.178;5.900;2022-07-17T12:58:47;4.43;;;1.05;;
50337;SDS011;46221;51.178;5.900;2022-07-17T13:01:14;4.50;;;1.00;;
50337;SDS011;46221;51.178;5.900;2022-07-17T13:03:41;3.38;;;1.02;;
50337;SDS011;46221;51.178;5.900;2022-07-17T13:06:07;4.40;;;1.20;;
50337;SDS011;46221;51.178;5.900;2022-07-17T13:08:34;4.35;;;1.20;;
50337;SDS011;46221;51.178;5.900;2022-07-17T13:11:01;3.63;;;1.13;;
50337;SDS011;46221;51.178;5.900;2022-07-17T13:13:32;5.25;;;1.45;;
50337;SDS011;46221;51.178;5.900;2022-07-17T13:16:05;3.47;;;1.48;;
50337;SDS011;46221;51.178;5.900;2022-07-17T13:18:32;4.30;;;1.48;;
50337;SDS011;46221;51.178;5.900;2022-07-17T13:20:58;5.50;;;1.80;;
50337;SDS011;46221;51.178;5.900;2022-07-17T13:23:27;6.20;;;1.70;;
50337;SDS011;46221;51.178;5.900;2022-07-17T13:25:54;4.43;;;1.60;;
50337;SDS011;46221;51.178;5.900;2022-07-17T13:28:21;4.13;;;1.40;;
50337;SDS011;46221;51.178;5.900;2022-07-17T13:30:47;4.93;;;1.65;;
50337;SDS011;46221;51.178;5.900;2022-07-17T13:33:13;4.32;;;1.52;;
50337;SDS011;46221;51.178;5.900;2022-07-17T13:35:41;2.55;;;1.40;;
50337;SDS011;46221;51.178;5.900;2022-07-17T13:38:07;5.65;;;1.42;;
50337;SDS011;46221;51.178;5.900;2022-07-17T13:40:35;3.00;;;1.40;;
50337;SDS011;46221;51.178;5.900;2022-07-17T13:43:03;3.38;;;1.40;;
50337;SDS011;46221;51.178;5.900;2022-07-17T13:45:29;4.20;;;1.80;;
50337;SDS011;46221;51.178;5.900;2022-07-17T13:47:56;2.85;;;1.38;;
50337;SDS011;46221;51.178;5.900;2022-07-17T13:50:23;3.70;;;1.33;;
50337;SDS011;46221;51.178;5.900;2022-07-17T13:52:49;2.00;;;1.00;;
50337;SDS011;46221;51.178;5.900;2022-07-17T13:55:16;3.08;;;1.00;;
50337;SDS011;46221;51.178;5.900;2022-07-17T13:58:02;2.40;;;1.10;;
50337;SDS011;46221;51.178;5.900;2022-07-17T14:00:29;2.03;;;1.13;;
50337;SDS011;46221;51.178;5.900;2022-07-17T14:02:55;2.47;;;0.90;;
50337;SDS011;46221;51.178;5.900;2022-07-17T14:05:22;2.33;;;1.42;;
50337;SDS011;46221;51.178;5.900;2022-07-17T14:07:48;3.35;;;1.30;;
50337;SDS011;46221;51.178;5.900;2022-07-17T14:10:15;3.42;;;1.13;;
50337;SDS011;46221;51.178;5.900;2022-07-17T14:12:41;3.78;;;1.33;;
50337;SDS011;46221;51.178;5.900;2022-07-17T14:15:07;3.22;;;1.40;;
50337;SDS011;46221;51.178;5.900;2022-07-17T14:17:39;1.70;;;0.85;;
50337;SDS011;46221;51.178;5.900;2022-07-17T14:20:06;2.92;;;1.17;;
50337;SDS011;46221;51.178;5.900;2022-07-17T14:22:32;3.55;;;1.17;;
50337;SDS011;46221;51.178;5.900;2022-07-17T14:24:58;2.65;;;1.23;;
50337;SDS011;46221;51.178;5.900;2022-07-17T14:27:25;2.33;;;0.95;;
50337;SDS011;46221;51.178;5.900;2022-07-17T14:29:51;4.53;;;1.08;;
50337;SDS011;46221;51.178;5.900;2022-07-17T14:32:17;2.97;;;1.17;;
50337;SDS011;46221;51.178;5.900;2022-07-17T14:34:44;2.17;;;1.02;;
50337;SDS011;46221;51.178;5.900;2022-07-17T14:37:10;2.75;;;1.00;;
50337;SDS011;46221;51.178;5.900;2022-07-17T14:39:36;1.90;;;0.90;;
50337;SDS011;46221;51.178;5.900;2022-07-17T14:42:02;2.33;;;1.02;;
50337;SDS011;46221;51.178;5.900;2022-07-17T14:44:29;2.38;;;0.90;;
50337;SDS011;46221;51.178;5.900;2022-07-17T14:46:57;2.03;;;1.10;;
50337;SDS011;46221;51.178;5.900;2022-07-17T14:49:25;2.58;;;1.00;;
50337;SDS011;46221;51.178;5.900;2022-07-17T14:51:52;1.75;;;0.90;;
50337;SDS011;46221;51.178;5.900;2022-07-17T14:54:19;1.83;;;1.10;;
50337;SDS011;46221;51.178;5.900;2022-07-17T14:56:45;3.13;;;1.20;;
50337;SDS011;46221;51.178;5.900;2022-07-17T14:59:11;2.15;;;1.15;;
50337;SDS011;46221;51.178;5.900;2022-07-17T15:01:38;2.28;;;0.93;;
50337;SDS011;46221;51.178;5.900;2022-07-17T15:04:04;2.08;;;0.93;;
50337;SDS011;46221;51.178;5.900;2022-07-17T15:06:30;2.53;;;1.17;;